Time;durP1;ratioP1;P1;durP2;ratioP2;P2;SDS_P1;SDS_P2;PMS_P1;PMS_P2;Temp;Humidity;BMP_temperature;BMP_pressure;BME280_temperature;BME280_humidity;BME280_pressure;Samples;Min_cycle;Max_cycle;Signal;HPM_P1;HPM_P2
2024/01/08 00:01:50;;;;;;;7.67;3.17;;;;;;;;;;4954961;28;20470;-78
2024/01/08 00:04:16;;;;;;;5.20;2.60;;;;;;;;;;4954943;28;20928;-78
2024/01/08 00:06:42;;;;;;;3.97;3.00;;;;;;;;;;4954975;28;20401;-80
2024/01/08 00:09:08;;;;;;;3.77;2.33;;;;;;;;;;4954090;28;20519;-78
2024/01/08 00:11:34;;;;;;;5.63;3.03;;;;;;;;;;4954852;28;20424;-79
2024/01/08 00:14:00;;;;;;;4.30;1.83;;;;;;;;;;4954413;28;20524;-79
2024/01/08 00:16:26;;;;;;;4.70;2.90;;;;;;;;;;4954842;28;20500;-79
2024/01/08 00:18:52;;;;;;;5.10;2.80;;;;;;;;;;4954735;28;20476;-78
2024/01/08 00:21:18;;;;;;;4.70;3.30;;;;;;;;;;4954835;28;20973;-78
2024/01/08 00:23:44;;;;;;;5.60;3.43;;;;;;;;;;4954496;28;20482;-78
2024/01/08 00:26:11;;;;;;;5.13;2.93;;;;;;;;;;4954621;28;20447;-80
2024/01/08 00:28:37;;;;;;;4.83;2.30;;;;;;;;;;4954574;28;20473;-80
2024/01/08 00:31:03;;;;;;;4.97;3.93;;;;;;;;;;4954639;28;20409;-79
2024/01/08 00:33:29;;;;;;;3.50;2.50;;;;;;;;;;4954674;28;20420;-79
2024/01/08 00:35:55;;;;;;;5.43;3.40;;;;;;;;;;4954480;28;20465;-78
2024/01/08 00:38:20;;;;;;;7.23;2.90;;;;;;;;;;4954232;28;20988;-78
2024/01/08 00:40:46;;;;;;;4.13;2.50;;;;;;;;;;4954153;28;20410;-79
2024/01/08 00:43:12;;;;;;;2.40;2.17;;;;;;;;;;4954755;28;20416;-78
2024/01/08 00:45:38;;;;;;;7.77;2.13;;;;;;;;;;4954809;28;20424;-76
2024/01/08 00:48:04;;;;;;;3.60;2.10;;;;;;;;;;4954752;28;20850;-77
2024/01/08 00:50:30;;;;;;;3.63;2.57;;;;;;;;;;4953506;28;20452;-76
2024/01/08 00:52:59;;;;;;;4.13;2.80;;;;;;;;;;4940638;28;20483;-76
2024/01/08 00:55:25;;;;;;;4.43;2.33;;;;;;;;;;4930800;28;20427;-76
2024/01/08 00:57:51;;;;;;;4.10;2.50;;;;;;;;;;4973598;28;20424;-77
2024/01/08 01:00:17;;;;;;;4.57;2.87;;;;;;;;;;4958259;28;20831;-75
2024/01/08 01:02:43;;;;;;;4.03;2.10;;;;;;;;;;4958499;28;20479;-75
2024/01/08 01:05:08;;;;;;;5.37;2.80;;;;;;;;;;4957110;28;20476;-78
2024/01/08 01:07:36;;;;;;;3.93;2.13;;;;;;;;;;4958289;28;20987;-78
2024/01/08 01:10:01;;;;;;;4.97;3.23;;;;;;;;;;4958042;28;20473;-78
2024/01/08 01:12:27;;;;;;;5.33;2.77;;;;;;;;;;4958384;28;20775;-75
2024/01/08 01:14:53;;;;;;;3.77;3.10;;;;;;;;;;4958292;28;20488;-77
2024/01/08 01:17:19;;;;;;;5.03;2.60;;;;;;;;;;4958218;28;20409;-76
2024/01/08 01:19:45;;;;;;;3.77;3.17;;;;;;;;;;4958254;28;20780;-79
2024/01/08 01:22:11;;;;;;;5.70;3.23;;;;;;;;;;4958211;28;20984;-79
2024/01/08 01:24:37;;;;;;;4.90;2.80;;;;;;;;;;4957592;28;20427;-79
2024/01/08 01:27:03;;;;;;;6.47;3.10;;;;;;;;;;4957946;28;20418;-78
2024/01/08 01:29:29;;;;;;;4.03;2.50;;;;;;;;;;4957445;28;20428;-77
2024/01/08 01:31:55;;;;;;;5.23;2.70;;;;;;;;;;4958080;28;20416;-75
2024/01/08 01:34:21;;;;;;;5.33;2.63;;;;;;;;;;4958032;28;20479;-75
2024/01/08 01:36:48;;;;;;;4.23;2.53;;;;;;;;;;4957757;28;20468;-75
2024/01/08 01:39:14;;;;;;;4.80;2.90;;;;;;;;;;4957074;28;20423;-75
2024/01/08 01:41:40;;;;;;;6.20;3.20;;;;;;;;;;4957620;28;20417;-75
2024/01/08 01:44:06;;;;;;;3.53;2.40;;;;;;;;;;4957784;28;20898;-76
2024/01/08 01:46:44;;;;;;;4.40;2.43;;;;;;;;;;4957713;28;20428;-75
2024/01/08 01:49:12;;;;;;;5.00;3.03;;;;;;;;;;4957437;28;20514;-75
2024/01/08 01:51:39;;;;;;;3.10;2.47;;;;;;;;;;4957646;28;20417;-76
2024/01/08 01:54:05;;;;;;;3.73;2.20;;;;;;;;;;4956015;28;20462;-76
2024/01/08 01:56:31;;;;;;;4.50;2.63;;;;;;;;;;4957554;28;20417;-76
2024/01/08 01:58:57;;;;;;;2.83;2.27;;;;;;;;;;4956271;28;20423;-76
2024/01/08 02:01:24;;;;;;;6.10;2.60;;;;;;;;;;4957337;28;20835;-77
2024/01/08 02:03:51;;;;;;;3.73;2.13;;;;;;;;;;4957488;28;20447;-77
2024/01/08 02:06:19;;;;;;;4.07;2.17;;;;;;;;;;4957402;28;20441;-76
2024/01/08 02:08:45;;;;;;;6.50;2.73;;;;;;;;;;4956921;28;21481;-76
2024/01/08 02:11:11;;;;;;;3.67;2.40;;;;;;;;;;4957268;28;20407;-75
2024/01/08 02:13:37;;;;;;;4.83;1.70;;;;;;;;;;4957325;28;20410;-76
2024/01/08 02:16:03;;;;;;;4.27;2.83;;;;;;;;;;4956029;28;20421;-76
2024/01/08 02:18:30;;;;;;;4.77;2.93;;;;;;;;;;4957225;28;20447;-74
2024/01/08 02:20:56;;;;;;;3.70;2.63;;;;;;;;;;4955746;28;20508;-76
2024/01/08 02:23:22;;;;;;;2.70;2.17;;;;;;;;;;4956777;28;20904;-75
2024/01/08 02:25:48;;;;;;;4.70;2.00;;;;;;;;;;4956573;28;20890;-77
2024/01/08 02:28:14;;;;;;;5.80;2.37;;;;;;;;;;4956627;28;20475;-75
2024/01/08 02:30:40;;;;;;;3.53;2.03;;;;;;;;;;4956485;28;20444;-76
2024/01/08 02:33:06;;;;;;;2.93;2.57;;;;;;;;;;4956950;28;20500;-76
2024/01/08 02:35:32;;;;;;;3.87;2.00;;;;;;;;;;4956430;28;20470;-75
2024/01/08 02:37:58;;;;;;;4.20;2.53;;;;;;;;;;4956850;28;20412;-76
2024/01/08 02:40:23;;;;;;;4.53;3.10;;;;;;;;;;4956355;28;20885;-77
2024/01/08 02:42:49;;;;;;;3.07;1.97;;;;;;;;;;4956723;28;20421;-76
2024/01/08 02:45:15;;;;;;;2.87;1.27;;;;;;;;;;4956661;28;20404;-76
2024/01/08 02:47:41;;;;;;;3.70;2.80;;;;;;;;;;4956621;28;20969;-76
2024/01/08 02:50:08;;;;;;;3.17;2.47;;;;;;;;;;4956544;28;20984;-77
2024/01/08 02:52:34;;;;;;;5.37;2.80;;;;;;;;;;4956569;28;20503;-75
2024/01/08 02:55:00;;;;;;;2.80;2.27;;;;;;;;;;4902373;28;20458;-78
2024/01/08 02:57:27;;;;;;;3.90;2.70;;;;;;;;;;4937334;29;21006;-76
2024/01/08 02:59:52;;;;;;;6.80;2.50;;;;;;;;;;4937261;29;20417;-77
2024/01/08 03:02:18;;;;;;;2.53;2.20;;;;;;;;;;4937002;28;20931;-77
2024/01/08 03:04:44;;;;;;;2.77;1.83;;;;;;;;;;4937038;29;20422;-75
2024/01/08 03:07:17;;;;;;;2.93;2.17;;;;;;;;;;4936963;29;20406;-75
2024/01/08 03:09:49;;;;;;;4.80;3.10;;;;;;;;;;4936782;29;20927;-75
2024/01/08 03:12:16;;;;;;;6.83;2.90;;;;;;;;;;4936905;29;20806;-76
2024/01/08 03:14:43;;;;;;;5.30;3.07;;;;;;;;;;4937044;29;20414;-75
2024/01/08 03:17:09;;;;;;;5.57;2.30;;;;;;;;;;4936476;29;20406;-77
2024/01/08 03:19:35;;;;;;;3.00;2.70;;;;;;;;;;4936900;29;20467;-76
2024/01/08 03:22:01;;;;;;;3.10;2.00;;;;;;;;;;4936880;29;20417;-76
2024/01/08 03:24:27;;;;;;;3.87;2.40;;;;;;;;;;4936405;29;20413;-76
2024/01/08 03:26:53;;;;;;;3.20;2.30;;;;;;;;;;4936774;29;20969;-76
2024/01/08 03:29:19;;;;;;;3.63;3.03;;;;;;;;;;4936745;29;20425;-75
2024/01/08 03:31:45;;;;;;;8.33;2.93;;;;;;;;;;4936712;29;20424;-76
2024/01/08 03:34:11;;;;;;;3.70;2.20;;;;;;;;;;4936568;29;20418;-75
2024/01/08 03:36:40;;;;;;;6.73;3.27;;;;;;;;;;4936427;29;20528;-76
2024/01/08 03:39:06;;;;;;;3.20;2.13;;;;;;;;;;4936247;29;20454;-77
2024/01/08 03:41:32;;;;;;;4.33;2.37;;;;;;;;;;4936526;29;20428;-77
2024/01/08 03:43:58;;;;;;;4.57;2.40;;;;;;;;;;4936444;29;20433;-77
2024/01/08 03:46:25;;;;;;;3.83;2.10;;;;;;;;;;4951167;28;20496;-76
2024/01/08 03:48:50;;;;;;;3.30;2.00;;;;;;;;;;4936268;29;20827;-78
2024/01/08 03:51:16;;;;;;;4.20;2.77;;;;;;;;;;4951100;28;20415;-78
2024/01/08 03:53:42;;;;;;;2.10;1.60;;;;;;;;;;4935999;29;20421;-76
2024/01/08 03:56:09;;;;;;;4.90;2.40;;;;;;;;;;4936251;29;20857;-78
2024/01/08 03:58:37;;;;;;;3.90;2.57;;;;;;;;;;4936234;28;20520;-77
2024/01/08 04:01:04;;;;;;;4.73;1.90;;;;;;;;;;4936100;29;20455;-75
2024/01/08 04:03:30;;;;;;;3.57;2.70;;;;;;;;;;4936172;29;20417;-77
2024/01/08 04:05:56;;;;;;;3.83;2.43;;;;;;;;;;4936317;29;20427;-77
2024/01/08 04:08:21;;;;;;;4.03;1.63;;;;;;;;;;4935906;29;20478;-76
2024/01/08 04:10:56;;;;;;;3.40;1.87;;;;;;;;;;4936206;28;20901;-76
2024/01/08 04:13:22;;;;;;;4.50;1.40;;;;;;;;;;4936190;28;20772;-76
2024/01/08 04:15:48;;;;;;;3.60;1.57;;;;;;;;;;4935849;28;20415;-77
2024/01/08 04:18:14;;;;;;;2.40;1.67;;;;;;;;;;4936084;29;20421;-77
2024/01/08 04:20:40;;;;;;;2.23;1.63;;;;;;;;;;4936106;29;20420;-77
2024/01/08 04:23:06;;;;;;;1.60;1.33;;;;;;;;;;4935749;29;20454;-77
2024/01/08 04:25:32;;;;;;;4.13;1.67;;;;;;;;;;4936004;29;20449;-77
2024/01/08 04:27:58;;;;;;;3.60;1.70;;;;;;;;;;4949957;28;20472;-77
2024/01/08 04:30:24;;;;;;;1.50;1.13;;;;;;;;;;4935751;29;20426;-77
2024/01/08 04:32:50;;;;;;;2.80;1.50;;;;;;;;;;4935949;29;20432;-77
2024/01/08 04:35:16;;;;;;;2.67;1.07;;;;;;;;;;4935704;29;20461;-76
2024/01/08 04:37:42;;;;;;;0.93;0.70;;;;;;;;;;4935894;29;20440;-77
2024/01/08 04:40:08;;;;;;;1.73;1.20;;;;;;;;;;4950212;28;20417;-77
2024/01/08 04:42:34;;;;;;;2.17;0.90;;;;;;;;;;4935823;29;20912;-76
2024/01/08 04:45:00;;;;;;;1.37;1.27;;;;;;;;;;4935742;29;20422;-76
2024/01/08 04:47:26;;;;;;;1.30;1.00;;;;;;;;;;4935662;29;20469;-76
2024/01/08 04:49:52;;;;;;;1.73;1.00;;;;;;;;;;4935859;29;20406;-77
2024/01/08 04:52:18;;;;;;;1.53;1.03;;;;;;;;;;4935744;29;20433;-75
2024/01/08 04:54:45;;;;;;;1.23;0.97;;;;;;;;;;4935425;29;20431;-76
2024/01/08 04:57:11;;;;;;;1.47;0.73;;;;;;;;;;4935726;29;20413;-75
2024/01/08 04:59:43;;;;;;;1.10;0.90;;;;;;;;;;4939211;29;20421;-77
2024/01/08 05:02:09;;;;;;;0.90;0.73;;;;;;;;;;4954798;28;20428;-75
2024/01/08 05:04:35;;;;;;;1.83;0.73;;;;;;;;;;4954710;28;20419;-78
2024/01/08 05:07:01;;;;;;;1.90;0.90;;;;;;;;;;4954642;28;20413;-76
2024/01/08 05:09:27;;;;;;;1.47;0.50;;;;;;;;;;4954328;28;20818;-76
2024/01/08 05:11:53;;;;;;;2.80;1.00;;;;;;;;;;4954711;28;20420;-75
2024/01/08 05:14:19;;;;;;;3.13;1.00;;;;;;;;;;4954665;28;20428;-75
2024/01/08 05:16:45;;;;;;;1.63;0.93;;;;;;;;;;4954639;28;20421;-76
2024/01/08 05:19:11;;;;;;;1.10;0.83;;;;;;;;;;4954707;28;20775;-76
2024/01/08 05:21:36;;;;;;;2.53;1.37;;;;;;;;;;4954599;28;20426;-76
2024/01/08 05:24:02;;;;;;;1.40;1.10;;;;;;;;;;4954153;28;20423;-76
2024/01/08 05:26:28;;;;;;;1.80;1.00;;;;;;;;;;4969414;28;20429;-77
2024/01/08 05:28:54;;;;;;;2.30;0.97;;;;;;;;;;4969341;28;20989;-78
2024/01/08 05:31:22;;;;;;;2.10;0.73;;;;;;;;;;4969344;28;20412;-78
2024/01/08 05:33:49;;;;;;;2.10;0.63;;;;;;;;;;4916209;28;20448;-78
2024/01/08 05:36:15;;;;;;;2.03;1.27;;;;;;;;;;4954208;28;21024;-77
2024/01/08 05:38:41;;;;;;;2.00;1.00;;;;;;;;;;4954208;28;20431;-77
2024/01/08 05:41:07;;;;;;;1.60;1.17;;;;;;;;;;4957381;28;20774;-77
2024/01/08 05:43:38;;;;;;;1.13;0.77;;;;;;;;;;4972793;28;20823;-77
2024/01/08 05:46:05;;;;;;;1.00;0.50;;;;;;;;;;4957958;28;20927;-78
2024/01/08 05:48:37;;;;;;;3.47;1.10;;;;;;;;;;4957676;28;20479;-78
2024/01/08 05:51:03;;;;;;;2.33;0.73;;;;;;;;;;4957831;28;20408;-78
2024/01/08 05:53:29;;;;;;;4.00;1.07;;;;;;;;;;4957477;28;20501;-79
2024/01/08 05:55:59;;;;;;;2.00;1.20;;;;;;;;;;4957760;28;20404;-78
2024/01/08 05:58:28;;;;;;;2.23;0.63;;;;;;;;;;4957618;28;20430;-77
2024/01/08 06:00:54;;;;;;;1.60;0.63;;;;;;;;;;4957612;28;20555;-76
2024/01/08 06:03:22;;;;;;;4.30;0.93;;;;;;;;;;4957537;28;20467;-78
2024/01/08 06:05:49;;;;;;;1.50;1.10;;;;;;;;;;4957525;28;20495;-76
2024/01/08 06:08:15;;;;;;;1.43;1.17;;;;;;;;;;4957035;28;20487;-77
2024/01/08 06:10:41;;;;;;;2.80;0.80;;;;;;;;;;4957537;28;20420;-76
2024/01/08 06:13:08;;;;;;;2.03;1.13;;;;;;;;;;4957390;28;20510;-77
2024/01/08 06:15:34;;;;;;;4.50;1.30;;;;;;;;;;4957375;28;20412;-77
2024/01/08 06:18:00;;;;;;;2.90;1.40;;;;;;;;;;4957309;28;20409;-77
2024/01/08 06:20:25;;;;;;;1.90;1.00;;;;;;;;;;4957290;28;20858;-78
2024/01/08 06:22:51;;;;;;;3.80;1.53;;;;;;;;;;4956951;28;20515;-77
2024/01/08 06:25:18;;;;;;;7.47;1.70;;;;;;;;;;4957005;28;20421;-76
2024/01/08 06:27:44;;;;;;;2.17;0.90;;;;;;;;;;4956972;28;20526;-77
2024/01/08 06:30:10;;;;;;;2.53;1.60;;;;;;;;;;4957074;28;20436;-78
2024/01/08 06:32:36;;;;;;;1.33;0.63;;;;;;;;;;4957132;28;20456;-76
2024/01/08 06:35:02;;;;;;;4.47;1.40;;;;;;;;;;4956916;28;20484;-78
2024/01/08 06:37:28;;;;;;;1.97;1.37;;;;;;;;;;4956612;28;20413;-78
2024/01/08 06:39:54;;;;;;;2.80;1.30;;;;;;;;;;4956471;28;20427;-77
2024/01/08 06:42:20;;;;;;;3.73;1.13;;;;;;;;;;4956891;28;20416;-77
2024/01/08 06:44:46;;;;;;;2.10;1.00;;;;;;;;;;4956699;28;20414;-76
2024/01/08 06:47:12;;;;;;;2.73;1.70;;;;;;;;;;4956614;28;20414;-76
2024/01/08 06:49:38;;;;;;;1.67;0.97;;;;;;;;;;4956664;28;20408;-76
2024/01/08 06:52:04;;;;;;;3.00;2.00;;;;;;;;;;4955899;28;20405;-76
2024/01/08 06:54:30;;;;;;;2.13;1.33;;;;;;;;;;4956263;28;20467;-76
2024/01/08 06:56:56;;;;;;;2.60;1.80;;;;;;;;;;4956468;28;21004;-78
2024/01/08 06:59:22;;;;;;;1.90;1.57;;;;;;;;;;4956699;28;20416;-78
2024/01/08 07:01:51;;;;;;;3.27;1.13;;;;;;;;;;4956516;28;20416;-76
2024/01/08 07:04:17;;;;;;;3.70;1.27;;;;;;;;;;4956490;28;20439;-79
2024/01/08 07:06:43;;;;;;;4.40;1.80;;;;;;;;;;4971277;28;20444;-79
2024/01/08 07:09:09;;;;;;;1.60;1.13;;;;;;;;;;4956040;28;20468;-79
2024/01/08 07:11:35;;;;;;;2.03;1.60;;;;;;;;;;4953196;28;20436;-77
2024/01/08 07:14:01;;;;;;;3.73;1.87;;;;;;;;;;4900247;28;20448;-78
2024/01/08 07:16:27;;;;;;;3.20;1.70;;;;;;;;;;4936952;28;20835;-77
2024/01/08 07:18:54;;;;;;;2.73;1.37;;;;;;;;;;4937116;29;20521;-78
2024/01/08 07:21:20;;;;;;;4.37;1.67;;;;;;;;;;4936758;28;20990;-78
2024/01/08 07:23:48;;;;;;;3.73;0.80;;;;;;;;;;4936563;28;20818;-78
2024/01/08 07:26:14;;;;;;;2.23;1.17;;;;;;;;;;4936855;29;20432;-78
2024/01/08 07:28:46;;;;;;;2.60;0.93;;;;;;;;;;4936758;29;20484;-79
2024/01/08 07:31:12;;;;;;;4.47;1.93;;;;;;;;;;4936839;29;20876;-80
2024/01/08 07:33:39;;;;;;;3.30;1.80;;;;;;;;;;4936760;29;20764;-79
2024/01/08 07:36:08;;;;;;;3.77;1.90;;;;;;;;;;4936651;28;20873;-79
2024/01/08 07:38:34;;;;;;;3.33;1.80;;;;;;;;;;4936583;29;20424;-81
2024/01/08 07:41:00;;;;;;;3.37;1.53;;;;;;;;;;4936851;28;20807;-81
2024/01/08 07:43:27;;;;;;;1.60;1.13;;;;;;;;;;4936843;28;20425;-82
2024/01/08 07:45:53;;;;;;;6.00;2.33;;;;;;;;;;4936886;28;20421;-82
2024/01/08 07:48:19;;;;;;;2.80;2.33;;;;;;;;;;4936833;28;20499;-82
2024/01/08 07:50:46;;;;;;;2.43;1.57;;;;;;;;;;4936954;29;20444;-80
2024/01/08 07:53:12;;;;;;;2.90;1.73;;;;;;;;;;4936136;28;20468;-81
2024/01/08 07:55:38;;;;;;;2.87;2.10;;;;;;;;;;4936818;28;20445;-80
2024/01/08 07:58:04;;;;;;;3.93;1.87;;;;;;;;;;4936694;29;20456;-79
2024/01/08 08:00:30;;;;;;;4.77;1.70;;;;;;;;;;4936639;29;20468;-77
2024/01/08 08:02:56;;;;;;;3.90;2.37;;;;;;;;;;4936509;28;20417;-80
2024/01/08 08:05:22;;;;;;;2.67;1.83;;;;;;;;;;4936249;29;20409;-79
2024/01/08 08:07:49;;;;;;;6.13;2.90;;;;;;;;;;4936074;29;20609;-80
2024/01/08 08:10:15;;;;;;;2.23;1.97;;;;;;;;;;4936511;29;20424;-78
2024/01/08 08:12:41;;;;;;;5.43;2.73;;;;;;;;;;4936477;29;20926;-82
2024/01/08 08:15:08;;;;;;;5.93;2.97;;;;;;;;;;4936323;29;20418;-80
2024/01/08 08:17:34;;;;;;;4.60;1.90;;;;;;;;;;4951036;28;20443;-80
2024/01/08 08:20:05;;;;;;;4.20;1.43;;;;;;;;;;4895897;28;20433;-79
2024/01/08 08:22:31;;;;;;;6.87;2.47;;;;;;;;;;4945052;28;20429;-78
2024/01/08 08:24:57;;;;;;;3.90;2.63;;;;;;;;;;4944639;28;20433;-77
2024/01/08 08:27:23;;;;;;;5.43;3.07;;;;;;;;;;4946317;29;20476;-78
2024/01/08 08:29:49;;;;;;;4.40;2.53;;;;;;;;;;4945315;29;20456;-78
2024/01/08 08:32:15;;;;;;;5.17;2.33;;;;;;;;;;4944949;28;20414;-79
2024/01/08 08:34:41;;;;;;;5.40;1.97;;;;;;;;;;4949071;28;20425;-79
2024/01/08 08:37:11;;;;;;;3.87;2.23;;;;;;;;;;4970046;28;20467;-80
2024/01/08 08:39:37;;;;;;;6.00;2.50;;;;;;;;;;4954958;28;20437;-77
2024/01/08 08:42:04;;;;;;;3.13;2.07;;;;;;;;;;4955197;28;20404;-76
2024/01/08 08:44:29;;;;;;;3.03;2.73;;;;;;;;;;4954847;28;20499;-76
2024/01/08 08:46:55;;;;;;;12.43;9.70;;;;;;;;;;4968965;28;20564;-77
2024/01/08 08:49:21;;;;;;;35.83;23.83;;;;;;;;;;4954709;29;20957;-75
2024/01/08 08:51:47;;;;;;;8.67;5.80;;;;;;;;;;4954843;28;20452;-76
2024/01/08 08:54:13;;;;;;;13.83;12.63;;;;;;;;;;4954317;28;20418;-77
2024/01/08 08:56:40;;;;;;;6.90;4.80;;;;;;;;;;4954733;28;20842;-76
2024/01/08 08:59:06;;;;;;;3.50;2.50;;;;;;;;;;4954743;28;20448;-77
2024/01/08 09:01:32;;;;;;;7.73;3.90;;;;;;;;;;4954783;28;20772;-76
2024/01/08 09:03:58;;;;;;;4.80;3.13;;;;;;;;;;4954672;28;20920;-79
2024/01/08 09:06:25;;;;;;;5.53;3.23;;;;;;;;;;4954575;28;20416;-76
2024/01/08 09:08:54;;;;;;;5.80;1.67;;;;;;;;;;4954265;28;20937;-79
2024/01/08 09:11:20;;;;;;;6.20;2.10;;;;;;;;;;4954693;28;20406;-77
2024/01/08 09:13:48;;;;;;;4.13;2.97;;;;;;;;;;4954603;28;20476;-78
2024/01/08 09:16:15;;;;;;;4.40;2.70;;;;;;;;;;4957965;28;20419;-78
2024/01/08 09:18:41;;;;;;;4.70;2.20;;;;;;;;;;4958339;28;20774;-78
2024/01/08 09:21:11;;;;;;;3.40;1.43;;;;;;;;;;4912363;28;20444;-77
2024/01/08 09:23:37;;;;;;;2.10;1.07;;;;;;;;;;4938736;29;20423;-78
2024/01/08 09:26:04;;;;;;;4.90;1.47;;;;;;;;;;4939031;29;20909;-78
2024/01/08 09:28:30;;;;;;;4.57;1.70;;;;;;;;;;4953669;28;20568;-78
2024/01/08 09:30:56;;;;;;;4.50;2.83;;;;;;;;;;4938763;29;20837;-78
2024/01/08 09:33:42;;;;;;;3.60;2.20;;;;;;;;;;4938829;29;20422;-78
2024/01/08 09:36:08;;;;;;;3.03;2.00;;;;;;;;;;4938787;29;20467;-78
2024/01/08 09:38:34;;;;;;;6.40;2.03;;;;;;;;;;4938529;29;20426;-78
2024/01/08 09:41:00;;;;;;;2.50;1.30;;;;;;;;;;4953693;28;20835;-78
2024/01/08 09:43:26;;;;;;;3.67;2.00;;;;;;;;;;4938797;29;20421;-78
2024/01/08 09:46:09;;;;;;;2.80;1.60;;;;;;;;;;4938763;29;20437;-78
2024/01/08 09:48:35;;;;;;;3.40;1.70;;;;;;;;;;4953317;28;20478;-78
2024/01/08 09:51:02;;;;;;;5.57;2.90;;;;;;;;;;4938664;29;20438;-78
2024/01/08 09:53:29;;;;;;;2.00;1.40;;;;;;;;;;4938276;29;20415;-79
2024/01/08 09:55:54;;;;;;;2.93;1.23;;;;;;;;;;4953307;28;20406;-78
2024/01/08 09:58:20;;;;;;;3.63;1.07;;;;;;;;;;4953279;28;20440;-79
2024/01/08 10:00:46;;;;;;;2.43;1.03;;;;;;;;;;4953182;28;20918;-78
2024/01/08 10:03:13;;;;;;;2.60;1.40;;;;;;;;;;4938394;29;20441;-79
2024/01/08 10:05:39;;;;;;;3.43;1.90;;;;;;;;;;4953041;28;20421;-78
2024/01/08 10:08:06;;;;;;;3.10;0.93;;;;;;;;;;4938185;29;21080;-78
2024/01/08 10:10:32;;;;;;;1.90;1.00;;;;;;;;;;4938318;29;20490;-78
2024/01/08 10:12:59;;;;;;;4.03;1.50;;;;;;;;;;4938328;29;20451;-78
2024/01/08 10:15:25;;;;;;;2.93;0.90;;;;;;;;;;4938230;29;20418;-78
2024/01/08 10:17:51;;;;;;;2.33;1.37;;;;;;;;;;4938283;29;20906;-78
2024/01/08 10:20:18;;;;;;;2.20;1.20;;;;;;;;;;4938177;29;20438;-78
2024/01/08 10:22:45;;;;;;;3.33;1.37;;;;;;;;;;4937794;29;20919;-78
2024/01/08 10:25:11;;;;;;;42.63;26.63;;;;;;;;;;4938071;29;20449;-78
2024/01/08 10:27:37;;;;;;;44.63;32.67;;;;;;;;;;4936775;29;20460;-78
2024/01/08 10:30:03;;;;;;;5.27;3.70;;;;;;;;;;4937901;29;20429;-78
2024/01/08 10:32:29;;;;;;;3.30;1.50;;;;;;;;;;4937944;29;20420;-78
2024/01/08 10:34:58;;;;;;;1.20;0.70;;;;;;;;;;4952432;28;20435;-78
2024/01/08 10:37:25;;;;;;;3.50;1.53;;;;;;;;;;4952182;28;20421;-78
2024/01/08 10:39:51;;;;;;;3.63;0.80;;;;;;;;;;4937800;29;20518;-78
2024/01/08 10:42:17;;;;;;;1.77;0.97;;;;;;;;;;4937743;29;20473;-79
2024/01/08 10:44:43;;;;;;;2.10;1.03;;;;;;;;;;4937616;29;20457;-78
2024/01/08 10:47:17;;;;;;;0.83;0.60;;;;;;;;;;4952389;28;20420;-78
2024/01/08 10:49:48;;;;;;;3.53;1.10;;;;;;;;;;4937657;29;20444;-78
2024/01/08 10:52:21;;;;;;;3.50;1.07;;;;;;;;;;4937283;29;20440;-78
2024/01/08 10:54:56;;;;;;;4.20;1.57;;;;;;;;;;4937508;29;20423;-78
2024/01/08 10:57:26;;;;;;;1.83;1.40;;;;;;;;;;4937452;29;20902;-79
2024/01/08 10:59:53;;;;;;;1.70;1.00;;;;;;;;;;4937383;29;20497;-78
2024/01/08 11:02:39;;;;;;;1.63;1.17;;;;;;;;;;4937343;29;20412;-79
2024/01/08 11:05:08;;;;;;;2.13;1.17;;;;;;;;;;4936921;29;20429;-78
2024/01/08 11:07:38;;;;;;;3.00;1.70;;;;;;;;;;4936774;29;20801;-79
2024/01/08 11:10:06;;;;;;;3.77;1.43;;;;;;;;;;4937170;29;20426;-79
2024/01/08 11:12:32;;;;;;;3.30;1.60;;;;;;;;;;4937241;29;20404;-79
2024/01/08 11:15:04;;;;;;;2.90;0.73;;;;;;;;;;4937200;29;20421;-78
2024/01/08 11:17:30;;;;;;;2.30;1.07;;;;;;;;;;4937128;29;20482;-78
2024/01/08 11:19:57;;;;;;;2.47;1.20;;;;;;;;;;4937073;29;20419;-79
2024/01/08 11:22:23;;;;;;;1.30;1.00;;;;;;;;;;4951333;28;20425;-78
2024/01/08 11:24:49;;;;;;;3.33;1.10;;;;;;;;;;4937022;29;20413;-79
2024/01/08 11:27:25;;;;;;;1.40;0.60;;;;;;;;;;4951495;28;20418;-78
2024/01/08 11:30:03;;;;;;;1.30;0.80;;;;;;;;;;4936883;29;20493;-78
2024/01/08 11:32:40;;;;;;;1.30;1.03;;;;;;;;;;4936787;29;20413;-78
2024/01/08 11:35:13;;;;;;;2.40;1.33;;;;;;;;;;4936637;29;20468;-78
2024/01/08 11:37:39;;;;;;;3.23;1.60;;;;;;;;;;4936121;29;20420;-78
2024/01/08 11:40:16;;;;;;;4.13;1.40;;;;;;;;;;4936553;29;20802;-79
2024/01/08 11:42:42;;;;;;;1.13;0.43;;;;;;;;;;4936637;29;20420;-78
2024/01/08 11:45:08;;;;;;;2.70;1.33;;;;;;;;;;4936550;28;20428;-79
2024/01/08 11:47:34;;;;;;;3.57;0.87;;;;;;;;;;4936370;28;20496;-78
2024/01/08 11:50:00;;;;;;;1.13;0.83;;;;;;;;;;4936354;28;20783;-79
2024/01/08 11:52:27;;;;;;;2.63;1.00;;;;;;;;;;4936138;29;20414;-79
2024/01/08 11:54:54;;;;;;;3.07;1.27;;;;;;;;;;4936376;29;20426;-79
2024/01/08 11:57:20;;;;;;;1.50;0.53;;;;;;;;;;4936388;29;20457;-78
2024/01/08 11:59:46;;;;;;;1.60;1.03;;;;;;;;;;4936371;29;20417;-78
2024/01/08 12:02:20;;;;;;;2.83;1.00;;;;;;;;;;4951097;28;20447;-78
2024/01/08 12:04:56;;;;;;;2.03;0.63;;;;;;;;;;4936242;29;20418;-78
2024/01/08 12:07:23;;;;;;;2.03;1.20;;;;;;;;;;4935821;29;20406;-79
2024/01/08 12:09:50;;;;;;;1.90;0.40;;;;;;;;;;4950895;28;20907;-79
2024/01/08 12:12:23;;;;;;;1.67;0.93;;;;;;;;;;4936129;29;20406;-79
2024/01/08 12:14:49;;;;;;;4.10;1.43;;;;;;;;;;4936402;29;20487;-79
2024/01/08 12:17:15;;;;;;;1.40;1.03;;;;;;;;;;4936331;29;20415;-78
2024/01/08 12:19:44;;;;;;;2.00;1.13;;;;;;;;;;4951135;28;20429;-79
2024/01/08 12:22:11;;;;;;;2.27;0.80;;;;;;;;;;4950547;28;20451;-79
2024/01/08 12:24:38;;;;;;;2.50;1.73;;;;;;;;;;4936036;29;20456;-79
2024/01/08 12:27:05;;;;;;;3.13;2.30;;;;;;;;;;4950856;28;20521;-79
2024/01/08 12:29:31;;;;;;;0.77;0.57;;;;;;;;;;4935890;29;20565;-79
2024/01/08 12:32:00;;;;;;;1.73;1.23;;;;;;;;;;4935814;29;20414;-79
2024/01/08 12:34:33;;;;;;;3.57;0.80;;;;;;;;;;4950670;28;20448;-79
2024/01/08 12:36:59;;;;;;;2.17;0.90;;;;;;;;;;4935361;28;20484;-80
2024/01/08 12:39:28;;;;;;;2.00;1.23;;;;;;;;;;4921904;28;20921;-87
2024/01/08 12:41:55;;;;;;;3.00;1.20;;;;;;;;;;4953351;28;20416;-84
2024/01/08 12:44:22;;;;;;;1.70;0.70;;;;;;;;;;4954995;28;20443;-88
2024/01/08 12:46:48;;;;;;;2.80;1.23;;;;;;;;;;4954988;28;20444;-87
2024/01/08 12:49:14;;;;;;;1.70;0.97;;;;;;;;;;4955337;28;20506;-88
2024/01/08 12:51:43;;;;;;;2.40;1.40;;;;;;;;;;4958802;28;20479;-88
2024/01/08 12:54:09;;;;;;;4.67;1.20;;;;;;;;;;4959106;28;20416;-85
2024/01/08 12:56:36;;;;;;;2.03;1.30;;;;;;;;;;4958714;28;20519;-89
2024/01/08 12:59:02;;;;;;;3.30;1.40;;;;;;;;;;4958859;28;20423;-87
2024/01/08 13:01:28;;;;;;;1.43;1.00;;;;;;;;;;4958582;28;20413;-83
2024/01/08 13:03:54;;;;;;;4.03;1.23;;;;;;;;;;4958512;28;20419;-83
2024/01/08 13:06:22;;;;;;;1.33;1.10;;;;;;;;;;4958619;28;20442;-83
2024/01/08 13:08:51;;;;;;;2.40;0.87;;;;;;;;;;4958098;28;20472;-85
2024/01/08 13:11:17;;;;;;;2.37;0.83;;;;;;;;;;4958491;28;20419;-83
2024/01/08 13:13:43;;;;;;;2.83;1.50;;;;;;;;;;4958444;28;20762;-87
2024/01/08 13:16:09;;;;;;;3.30;1.50;;;;;;;;;;4952528;28;20418;-84
2024/01/08 13:18:35;;;;;;;2.23;1.33;;;;;;;;;;4958036;28;20444;-82
2024/01/08 13:21:02;;;;;;;4.17;1.00;;;;;;;;;;4958122;28;20412;-85
2024/01/08 13:23:28;;;;;;;3.10;1.10;;;;;;;;;;4957579;28;20424;-84
2024/01/08 13:25:55;;;;;;;2.30;1.53;;;;;;;;;;4954543;28;20517;-83
2024/01/08 13:28:27;;;;;;;2.17;1.33;;;;;;;;;;4957835;28;21000;-80
2024/01/08 13:30:53;;;;;;;4.47;2.13;;;;;;;;;;4958049;28;20810;-82
2024/01/08 13:33:19;;;;;;;2.03;0.83;;;;;;;;;;4956675;28;20421;-82
2024/01/08 13:35:45;;;;;;;3.40;1.53;;;;;;;;;;4957410;28;20504;-81
2024/01/08 13:38:11;;;;;;;2.10;1.13;;;;;;;;;;4951476;28;20431;-80
2024/01/08 13:40:40;;;;;;;4.43;1.43;;;;;;;;;;4922466;28;20932;-81
2024/01/08 13:43:09;;;;;;;2.00;1.80;;;;;;;;;;4958009;28;20779;-82
2024/01/08 13:45:35;;;;;;;3.70;0.97;;;;;;;;;;4957806;28;20432;-81
2024/01/08 13:48:01;;;;;;;1.80;1.03;;;;;;;;;;4957682;28;20479;-81
2024/01/08 13:50:28;;;;;;;2.93;1.60;;;;;;;;;;4957777;28;20440;-81
2024/01/08 13:52:54;;;;;;;3.93;1.87;;;;;;;;;;4972603;28;20917;-82
2024/01/08 13:55:20;;;;;;;2.27;1.13;;;;;;;;;;4957740;28;20413;-81
2024/01/08 13:57:46;;;;;;;2.07;0.90;;;;;;;;;;4957742;28;20475;-81
2024/01/08 14:00:13;;;;;;;2.90;1.47;;;;;;;;;;4957333;28;20472;-81
2024/01/08 14:02:39;;;;;;;1.80;1.03;;;;;;;;;;4957447;28;20416;-81
2024/01/08 14:05:07;;;;;;;2.30;1.37;;;;;;;;;;4957531;28;20413;-81
2024/01/08 14:07:32;;;;;;;3.23;1.90;;;;;;;;;;4957092;28;20409;-81
2024/01/08 14:09:59;;;;;;;2.83;1.60;;;;;;;;;;4957527;28;20787;-82
2024/01/08 14:12:25;;;;;;;2.97;2.17;;;;;;;;;;4972076;28;20487;-82
2024/01/08 14:14:51;;;;;;;3.80;1.30;;;;;;;;;;4957387;28;20917;-81
2024/01/08 14:17:17;;;;;;;1.63;0.70;;;;;;;;;;4956084;28;20905;-80
2024/01/08 14:19:43;;;;;;;3.77;1.80;;;;;;;;;;4957418;28;20485;-80
2024/01/08 14:22:11;;;;;;;2.67;2.47;;;;;;;;;;4971812;28;20428;-81
2024/01/08 14:24:37;;;;;;;2.13;1.37;;;;;;;;;;4957294;28;20850;-80
2024/01/08 14:27:03;;;;;;;1.03;0.77;;;;;;;;;;4957309;28;20421;-81
2024/01/08 14:29:29;;;;;;;2.77;2.30;;;;;;;;;;4957117;28;20468;-81
2024/01/08 14:31:56;;;;;;;2.40;1.70;;;;;;;;;;4957116;28;20931;-81
2024/01/08 14:34:24;;;;;;;2.87;1.70;;;;;;;;;;4957209;28;20436;-81
2024/01/08 14:36:52;;;;;;;3.40;1.63;;;;;;;;;;4956739;28;20870;-79
2024/01/08 14:39:21;;;;;;;2.17;1.57;;;;;;;;;;4918428;28;20982;-79
2024/01/08 14:41:47;;;;;;;3.40;2.30;;;;;;;;;;4936306;29;20418;-80